Time;durP1;ratioP1;P1;durP2;ratioP2;P2;SDS_P1;SDS_P2;PMS_P1;PMS_P2;Temp;Humidity;BMP_temperature;BMP_pressure;BME280_temperature;BME280_humidity;BME280_pressure;Samples;Min_cycle;Max_cycle;Signal;HPM_P1;HPM_P2
2022/09/28 00:00:25;;;;;;;1.10;1.00;;;20.70;47.40;;;;;;5050762;28;20048;-10
2022/09/28 00:02:51;;;;;;;1.17;1.08;;;20.70;47.40;;;;;;5050826;28;20049;-10
2022/09/28 00:05:16;;;;;;;1.58;1.00;;;20.70;47.40;;;;;;5050705;28;20084;-11
2022/09/28 00:07:42;;;;;;;1.23;1.00;;;20.70;47.40;;;;;;5051085;28;20084;-11
2022/09/28 00:10:08;;;;;;;1.60;1.10;;;20.70;47.40;;;;;;5050739;28;20071;-11
2022/09/28 00:12:34;;;;;;;2.10;1.10;;;20.70;47.40;;;;;;5050905;28;20056;-10
2022/09/28 00:14:59;;;;;;;1.33;1.10;;;20.70;47.40;;;;;;5050494;28;20040;-11
2022/09/28 00:17:25;;;;;;;1.73;1.15;;;20.80;47.40;;;;;;5050268;28;20413;-11
2022/09/28 00:19:51;;;;;;;1.20;1.10;;;20.80;47.40;;;;;;5050868;28;20117;-11
2022/09/28 00:22:17;;;;;;;1.73;1.30;;;20.70;47.40;;;;;;5050817;28;20049;-11
2022/09/28 00:24:43;;;;;;;1.42;1.00;;;20.70;47.30;;;;;;5050741;28;20052;-10
2022/09/28 00:27:09;;;;;;;1.20;1.10;;;20.70;47.40;;;;;;5050412;28;20092;-10
2022/09/28 00:29:36;;;;;;;1.20;1.10;;;20.70;47.40;;;;;;5050472;28;20057;-10
2022/09/28 00:32:09;;;;;;;1.35;1.10;;;20.70;47.40;;;;;;5050712;28;20049;-11
2022/09/28 00:34:37;;;;;;;1.90;0.90;;;20.70;47.40;;;;;;5050646;28;20201;-10
2022/09/28 00:37:04;;;;;;;1.50;1.05;;;20.70;47.40;;;;;;5050244;28;20053;-11
2022/09/28 00:39:34;;;;;;;1.08;0.98;;;20.70;47.40;;;;;;5050302;28;20064;-11
2022/09/28 00:42:01;;;;;;;8.30;1.23;;;20.70;47.40;;;;;;5050453;28;20394;-10
2022/09/28 00:44:36;;;;;;;1.27;0.98;;;20.70;47.30;;;;;;5049868;28;20490;-11
2022/09/28 00:47:26;;;;;;;1.45;1.00;;;20.70;47.30;;;;;;5050362;28;20059;-11
2022/09/28 00:50:10;;;;;;;0.85;0.85;;;20.70;47.30;;;;;;5048798;28;20059;-11
2022/09/28 00:52:52;;;;;;;1.88;1.30;;;20.70;47.30;;;;;;5050407;28;20049;-11
2022/09/28 00:55:24;;;;;;;0.93;0.85;;;20.70;47.30;;;;;;5050047;28;20094;-10
2022/09/28 00:57:55;;;;;;;1.65;1.27;;;20.70;47.30;;;;;;5030088;28;20138;-11
2022/09/28 01:00:21;;;;;;;1.20;1.00;;;20.70;47.30;;;;;;5032208;28;20398;-11
2022/09/28 01:02:47;;;;;;;2.58;1.00;;;20.70;47.30;;;;;;5032348;28;20052;-10
2022/09/28 01:05:14;;;;;;;1.17;0.98;;;20.70;47.30;;;;;;5048584;28;20546;-10
2022/09/28 01:07:41;;;;;;;2.38;0.93;;;20.70;47.30;;;;;;5031798;28;20422;-11
2022/09/28 01:10:07;;;;;;;0.93;0.90;;;20.70;47.30;;;;;;5049854;28;20060;-11
2022/09/28 01:12:33;;;;;;;1.55;1.10;;;20.70;47.30;;;;;;5031863;28;20048;-10
2022/09/28 01:15:00;;;;;;;1.25;1.10;;;20.70;47.40;;;;;;5047494;28;20514;-11
2022/09/28 01:17:41;;;;;;;1.00;0.90;;;20.70;47.40;;;;;;5031734;28;20056;-11
2022/09/28 01:20:31;;;;;;;1.20;1.10;;;20.70;47.40;;;;;;5029974;28;20054;-11
2022/09/28 01:22:59;;;;;;;1.45;1.02;;;20.70;47.40;;;;;;5032150;28;20371;-11
2022/09/28 01:25:43;;;;;;;1.17;1.08;;;20.70;47.40;;;;;;5048320;28;20189;-10
2022/09/28 01:28:15;;;;;;;1.60;1.20;;;20.70;47.40;;;;;;5049600;28;20080;-11
2022/09/28 01:30:53;;;;;;;1.35;1.10;;;20.70;47.40;;;;;;5049554;28;20110;-11
2022/09/28 01:33:23;;;;;;;1.30;1.10;;;20.70;47.30;;;;;;5047523;28;20064;-11
2022/09/28 01:36:30;;;;;;;1.50;1.20;;;20.70;47.40;;;;;;5031149;28;20053;-10
2022/09/28 01:39:10;;;;;;;1.15;0.98;;;20.70;47.40;;;;;;5070031;28;20110;-10
2022/09/28 01:41:39;;;;;;;1.57;1.00;;;20.60;47.30;;;;;;5050853;28;20056;-10
2022/09/28 01:44:09;;;;;;;1.13;0.93;;;20.60;47.30;;;;;;5049678;28;20075;-11
2022/09/28 01:46:36;;;;;;;1.70;1.20;;;20.70;47.40;;;;;;5031435;28;20057;-11
2022/09/28 01:49:17;;;;;;;1.00;0.90;;;20.70;47.40;;;;;;5031502;28;20045;-11
2022/09/28 01:51:46;;;;;;;1.40;1.00;;;20.60;47.50;;;;;;5049285;28;20091;-10
2022/09/28 01:54:16;;;;;;;1.10;1.00;;;20.60;47.50;;;;;;5031327;28;20037;-11
2022/09/28 01:56:50;;;;;;;1.30;0.90;;;20.60;47.50;;;;;;5034214;28;20189;-11
2022/09/28 01:59:21;;;;;;;1.52;1.05;;;20.60;47.50;;;;;;5052506;28;20057;-10
2022/09/28 02:02:11;;;;;;;1.47;1.10;;;20.60;47.50;;;;;;5034402;28;20064;-11
2022/09/28 02:04:40;;;;;;;1.25;0.85;;;20.60;47.60;;;;;;5034238;28;20052;-11
2022/09/28 02:07:16;;;;;;;1.20;0.90;;;20.50;47.60;;;;;;5049712;28;20093;-10
2022/09/28 02:09:55;;;;;;;1.15;0.90;;;20.60;47.60;;;;;;5034242;28;20413;-11
2022/09/28 02:12:40;;;;;;;1.13;0.88;;;20.60;47.60;;;;;;5034537;28;20045;-11
2022/09/28 02:15:17;;;;;;;1.42;1.08;;;20.60;47.60;;;;;;5050708;28;20045;-11
2022/09/28 02:17:44;;;;;;;1.00;0.90;;;20.60;47.60;;;;;;5033257;28;20494;-11
2022/09/28 02:20:12;;;;;;;1.23;0.90;;;20.60;47.60;;;;;;5033962;28;20052;-11
2022/09/28 02:22:44;;;;;;;0.98;0.98;;;20.60;47.60;;;;;;5034084;28;20049;-11
2022/09/28 02:25:18;;;;;;;1.08;0.98;;;20.60;48.00;;;;;;5034539;28;20049;-11
2022/09/28 02:28:04;;;;;;;0.70;0.70;;;20.60;47.40;;;;;;5034572;28;20132;-11
2022/09/28 02:30:32;;;;;;;1.27;1.08;;;20.60;47.40;;;;;;5033938;28;20446;-10
2022/09/28 02:33:11;;;;;;;1.15;1.02;;;20.60;47.40;;;;;;5033930;28;20101;-11
2022/09/28 02:35:37;;;;;;;2.15;1.27;;;20.60;47.40;;;;;;5052031;28;20053;-11
2022/09/28 02:38:03;;;;;;;1.23;1.13;;;20.60;47.40;;;;;;5051458;28;20041;-11
2022/09/28 02:40:32;;;;;;;0.93;0.85;;;20.60;47.40;;;;;;5120234;28;20525;-10
2022/09/28 02:43:21;;;;;;;1.27;1.08;;;20.60;47.40;;;;;;5033766;28;20062;-10
2022/09/28 02:46:05;;;;;;;0.65;0.65;;;20.60;47.40;;;;;;5052055;28;20550;-10
2022/09/28 02:49:05;;;;;;;0.80;0.80;;;20.70;47.30;;;;;;5049830;28;20072;-11
2022/09/28 02:51:40;;;;;;;1.00;0.90;;;20.70;47.20;;;;;;5033732;28;20041;-10
2022/09/28 02:54:23;;;;;;;1.45;0.88;;;20.70;47.10;;;;;;5050336;28;20140;-11
2022/09/28 02:57:04;;;;;;;1.25;0.98;;;20.80;47.10;;;;;;5051301;28;20141;-11
2022/09/28 02:59:56;;;;;;;0.88;0.80;;;20.80;47.00;;;;;;5033611;28;20558;-11
2022/09/28 03:02:33;;;;;;;1.38;1.00;;;20.80;47.00;;;;;;5033490;28;20481;-11
2022/09/28 03:04:59;;;;;;;0.90;0.90;;;20.90;46.90;;;;;;5034138;28;20064;-10
2022/09/28 03:07:35;;;;;;;1.00;0.82;;;20.90;46.80;;;;;;5047886;28;20077;-11
2022/09/28 03:10:22;;;;;;;2.13;1.00;;;20.90;46.70;;;;;;5015823;28;20053;-11
2022/09/28 03:12:50;;;;;;;0.90;0.90;;;21.00;46.60;;;;;;5033662;28;20409;-11
2022/09/28 03:15:33;;;;;;;1.00;0.90;;;21.00;46.50;;;;;;5033171;28;20045;-11
2022/09/28 03:18:00;;;;;;;0.95;0.82;;;21.00;46.50;;;;;;5033429;28;20402;-11
2022/09/28 03:20:28;;;;;;;1.67;1.10;;;21.10;46.50;;;;;;5033208;28;20057;-11
2022/09/28 03:22:54;;;;;;;1.27;1.00;;;21.10;46.40;;;;;;5033508;28;20144;-10
2022/09/28 03:25:20;;;;;;;1.52;0.80;;;21.10;46.40;;;;;;5032231;28;20050;-11
2022/09/28 03:27:45;;;;;;;1.02;0.88;;;21.10;46.30;;;;;;5049692;28;20089;-10
2022/09/28 03:30:13;;;;;;;1.23;0.93;;;21.10;46.30;;;;;;5033295;28;20387;-10
2022/09/28 03:32:42;;;;;;;0.80;0.80;;;21.20;46.30;;;;;;5033091;28;20140;-11
2022/09/28 03:35:09;;;;;;;0.80;0.80;;;21.10;46.20;;;;;;5032743;28;21081;-10
2022/09/28 03:37:35;;;;;;;1.00;0.90;;;21.20;46.80;;;;;;5050951;28;20056;-10
2022/09/28 03:40:02;;;;;;;0.70;0.70;;;21.20;46.20;;;;;;5033064;28;20053;-11
2022/09/28 03:42:28;;;;;;;1.52;1.17;;;21.20;46.20;;;;;;5032972;28;20059;-11
2022/09/28 03:44:54;;;;;;;1.02;0.80;;;21.20;46.20;;;;;;5049598;28;20045;-11
2022/09/28 03:47:20;;;;;;;0.80;0.80;;;21.20;46.20;;;;;;5031570;28;20050;-11
2022/09/28 03:49:45;;;;;;;1.48;0.70;;;21.20;46.20;;;;;;5032800;28;20087;-10
2022/09/28 03:52:12;;;;;;;0.85;0.80;;;21.20;46.20;;;;;;5049568;28;20135;-11
2022/09/28 03:54:39;;;;;;;0.90;0.90;;;21.20;46.20;;;;;;5032749;28;20490;-10
2022/09/28 03:57:04;;;;;;;0.85;0.70;;;21.10;46.30;;;;;;5032821;28;20053;-11
2022/09/28 03:59:30;;;;;;;0.98;0.85;;;21.10;46.30;;;;;;5032599;28;20049;-11
2022/09/28 04:01:56;;;;;;;1.20;1.00;;;21.10;46.30;;;;;;5032052;28;20433;-10
2022/09/28 04:04:22;;;;;;;0.70;0.68;;;21.10;46.40;;;;;;5050670;28;20397;-11
2022/09/28 04:06:48;;;;;;;0.80;0.80;;;21.10;46.40;;;;;;5050487;28;20048;-11
2022/09/28 04:09:15;;;;;;;0.80;0.80;;;21.10;46.40;;;;;;5032022;28;20091;-10
2022/09/28 04:11:41;;;;;;;1.20;0.70;;;21.10;46.40;;;;;;5032682;28;20048;-10
2022/09/28 04:14:07;;;;;;;1.00;0.90;;;21.00;46.40;;;;;;5049293;28;20509;-11
2022/09/28 04:16:33;;;;;;;1.08;0.98;;;21.00;46.40;;;;;;5032585;28;20052;-10
2022/09/28 04:19:09;;;;;;;0.73;0.73;;;21.00;46.40;;;;;;5048985;28;20387;-11
2022/09/28 04:22:01;;;;;;;0.73;0.70;;;21.00;46.50;;;;;;5047961;28;20086;-10
2022/09/28 04:24:27;;;;;;;0.95;0.88;;;20.90;46.70;;;;;;5048086;28;20132;-10
2022/09/28 04:29:14;;;;;;;0.85;0.80;;;20.80;46.70;;;;;;5030982;28;20045;-10
2022/09/28 04:29:41;;;;;;;1.25;0.98;;;20.80;46.80;;;;;;5050171;28;20506;-10
2022/09/28 04:32:09;;;;;;;0.95;0.70;;;20.80;46.90;;;;;;5032579;28;20053;-11
2022/09/28 04:34:36;;;;;;;1.10;0.85;;;20.80;47.00;;;;;;5032930;28;20139;-10
2022/09/28 04:37:01;;;;;;;0.95;0.88;;;20.80;46.90;;;;;;5049544;28;20528;-11
2022/09/28 04:39:27;;;;;;;1.58;0.90;;;20.80;46.90;;;;;;5047360;28;20053;-11
2022/09/28 04:41:54;;;;;;;1.00;0.82;;;20.90;46.80;;;;;;5048907;28;20139;-10
2022/09/28 04:44:20;;;;;;;0.80;0.75;;;20.80;46.80;;;;;;5050336;28;20450;-11
2022/09/28 04:46:47;;;;;;;0.93;0.70;;;20.80;46.80;;;;;;5048852;28;20147;-10
2022/09/28 04:49:28;;;;;;;0.73;0.73;;;20.80;46.80;;;;;;5050257;28;20049;-10
2022/09/28 04:52:02;;;;;;;1.00;0.90;;;20.80;46.80;;;;;;5032640;28;20056;-10
2022/09/28 04:54:28;;;;;;;0.93;0.70;;;20.80;47.00;;;;;;5047386;28;20057;-11
2022/09/28 04:56:55;;;;;;;0.98;0.88;;;20.80;46.90;;;;;;5050278;28;20543;-11
2022/09/28 04:59:21;;;;;;;1.30;0.80;;;20.80;46.80;;;;;;5050481;28;20138;-11
2022/09/28 05:01:48;;;;;;;1.05;0.70;;;20.90;46.70;;;;;;5047594;28;20487;-11
2022/09/28 05:04:46;;;;;;;0.73;0.73;;;20.90;46.60;;;;;;5049746;28;20072;-10
2022/09/28 05:07:30;;;;;;;1.02;0.73;;;20.90;46.60;;;;;;5049926;28;20121;-11
2022/09/28 05:09:57;;;;;;;0.70;0.70;;;20.90;46.50;;;;;;5032645;28;20053;-10
2022/09/28 05:12:23;;;;;;;0.63;0.63;;;20.90;46.50;;;;;;5049981;28;20406;-11
2022/09/28 05:14:48;;;;;;;0.80;0.70;;;21.00;46.50;;;;;;5047042;28;20448;-11
2022/09/28 05:17:14;;;;;;;1.00;0.77;;;21.00;46.50;;;;;;5118285;27;20056;-12
2022/09/28 05:20:05;;;;;;;1.27;0.80;;;21.00;46.50;;;;;;5048663;28;20068;-11
2022/09/28 05:22:32;;;;;;;0.85;0.77;;;21.00;46.40;;;;;;5031704;28;20550;-11
2022/09/28 05:24:59;;;;;;;0.75;0.75;;;21.00;46.40;;;;;;5031269;28;20132;-11
2022/09/28 05:27:26;;;;;;;1.80;0.90;;;21.00;46.40;;;;;;5032210;28;20053;-11
2022/09/28 05:30:06;;;;;;;0.90;0.85;;;21.00;46.40;;;;;;5048697;28;20057;-11
2022/09/28 05:32:50;;;;;;;0.80;0.80;;;21.00;46.40;;;;;;5049945;28;20159;-11
2022/09/28 05:35:35;;;;;;;1.88;0.80;;;21.00;46.30;;;;;;5049636;28;20052;-11
2022/09/28 05:38:04;;;;;;;0.95;0.90;;;21.00;46.30;;;;;;5049322;28;20101;-11
2022/09/28 05:40:30;;;;;;;0.80;0.80;;;21.00;46.30;;;;;;5049644;28;20397;-11
2022/09/28 05:43:00;;;;;;;0.70;0.70;;;21.00;46.30;;;;;;5031493;28;20045;-11
2022/09/28 05:45:28;;;;;;;1.15;0.73;;;21.00;46.30;;;;;;5031354;28;20406;-11
2022/09/28 05:47:53;;;;;;;0.90;0.90;;;21.00;46.30;;;;;;5030045;28;20395;-11
2022/09/28 05:50:20;;;;;;;0.88;0.70;;;21.00;46.30;;;;;;5048000;28;20057;-11
2022/09/28 05:52:46;;;;;;;0.75;0.70;;;21.00;46.30;;;;;;5047873;28;20052;-11
2022/09/28 05:55:12;;;;;;;0.73;0.70;;;21.00;46.20;;;;;;5031188;28;20057;-11
2022/09/28 05:57:40;;;;;;;1.05;0.80;;;21.00;46.20;;;;;;5030392;28;20057;-11
2022/09/28 06:00:08;;;;;;;0.80;0.80;;;21.00;46.20;;;;;;5047778;28;20057;-11
2022/09/28 06:02:38;;;;;;;1.00;0.90;;;21.00;46.20;;;;;;5049040;28;20405;-11
2022/09/28 06:05:04;;;;;;;0.70;0.70;;;21.00;46.20;;;;;;5047758;28;20049;-11
2022/09/28 06:07:30;;;;;;;0.80;0.80;;;21.00;46.30;;;;;;5048785;28;20379;-11
2022/09/28 06:09:55;;;;;;;1.02;0.82;;;21.00;46.20;;;;;;5031352;28;20057;-11
2022/09/28 06:12:35;;;;;;;0.73;0.73;;;21.00;46.20;;;;;;5030847;28;20061;-10
2022/09/28 06:15:06;;;;;;;0.80;0.80;;;21.00;46.30;;;;;;5047861;28;20486;-10
2022/09/28 06:17:32;;;;;;;0.70;0.70;;;21.00;46.20;;;;;;5030346;28;20065;-10
2022/09/28 06:20:36;;;;;;;0.82;0.70;;;21.00;46.20;;;;;;5030656;28;20103;-11
2022/09/28 06:23:13;;;;;;;0.70;0.70;;;21.10;46.20;;;;;;5048442;28;20057;-11
2022/09/28 06:25:39;;;;;;;0.68;0.68;;;21.10;46.10;;;;;;5026944;28;20042;-11
2022/09/28 06:28:08;;;;;;;0.77;0.77;;;21.10;46.10;;;;;;5030187;28;20049;-13
2022/09/28 06:30:37;;;;;;;0.60;0.60;;;21.10;46.10;;;;;;5048787;28;20056;-11
2022/09/28 06:33:05;;;;;;;0.93;0.93;;;21.10;46.10;;;;;;5029832;28;20053;-12
2022/09/28 06:35:31;;;;;;;0.82;0.80;;;21.10;46.10;;;;;;5030924;28;20093;-11
2022/09/28 06:37:58;;;;;;;0.80;0.80;;;21.10;46.10;;;;;;5030071;28;20082;-12
2022/09/28 06:40:25;;;;;;;1.02;0.80;;;21.10;46.10;;;;;;5048527;28;20079;-12
2022/09/28 06:43:01;;;;;;;0.70;0.70;;;21.10;46.10;;;;;;5033470;28;20061;-11
2022/09/28 06:45:53;;;;;;;1.02;0.88;;;21.10;46.00;;;;;;5051515;28;20500;-11
2022/09/28 06:48:45;;;;;;;2.08;0.80;;;21.10;46.00;;;;;;5051215;28;20060;-12
2022/09/28 06:51:17;;;;;;;0.93;0.90;;;21.10;46.00;;;;;;5033998;28;20439;-11
2022/09/28 06:54:09;;;;;;;0.68;0.68;;;21.10;46.00;;;;;;5027673;28;20113;-10
2022/09/28 06:56:52;;;;;;;0.73;0.73;;;21.10;45.90;;;;;;5048863;28;20554;-12
2022/09/28 06:59:19;;;;;;;0.85;0.73;;;21.10;45.90;;;;;;5048397;28;20148;-12
2022/09/28 07:01:45;;;;;;;0.70;0.70;;;21.10;45.90;;;;;;5033329;28;20049;-11
2022/09/28 07:04:43;;;;;;;1.02;1.00;;;21.10;45.90;;;;;;5017500;28;20051;-12
2022/09/28 07:07:31;;;;;;;0.90;0.80;;;21.20;46.00;;;;;;5050695;28;20061;-12
2022/09/28 07:10:17;;;;;;;1.10;1.00;;;21.10;45.90;;;;;;5010055;28;20049;-11
2022/09/28 07:13:14;;;;;;;1.10;1.00;;;21.10;45.90;;;;;;5051071;28;20506;-11
2022/09/28 07:15:44;;;;;;;;;;;21.10;45.90;;;;;;5051747;28;20470;-11
2022/09/28 07:18:13;;;;;;;1.58;0.90;;;21.10;45.90;;;;;;5048914;28;19921;-11
2022/09/28 07:20:41;;;;;;;0.70;0.70;;;21.10;45.90;;;;;;5048944;28;20049;-11
2022/09/28 07:23:07;;;;;;;0.90;0.80;;;21.10;45.90;;;;;;5033094;28;20443;-11
2022/09/28 07:25:52;;;;;;;1.35;0.80;;;21.10;45.90;;;;;;5050808;28;20076;-11
2022/09/28 07:28:30;;;;;;;1.27;0.85;;;21.10;45.90;;;;;;5049660;28;20102;-10
2022/09/28 07:31:26;;;;;;;0.93;0.80;;;21.20;46.00;;;;;;5037515;28;20135;-11
2022/09/28 07:34:19;;;;;;;0.93;0.80;;;21.10;45.90;;;;;;5027169;28;20087;-11
2022/09/28 07:37:10;;;;;;;2.70;1.10;;;21.10;45.90;;;;;;5049577;28;20045;-11
2022/09/28 07:41:10;;;;;;;1.10;1.00;;;21.10;45.90;;;;;;5032666;28;20045;-12
2022/09/28 07:42:23;;;;;;;1.17;0.80;;;21.10;45.90;;;;;;5032504;28;20049;-11
2022/09/28 07:44:50;;;;;;;1.10;0.98;;;21.10;45.90;;;;;;5032585;28;20090;-11
2022/09/28 07:47:17;;;;;;;1.98;1.08;;;21.10;45.80;;;;;;5049316;28;20053;-11
2022/09/28 07:50:10;;;;;;;2.05;0.80;;;21.20;46.00;;;;;;5037727;28;20459;-11
2022/09/28 07:52:46;;;;;;;0.90;0.80;;;21.10;46.00;;;;;;5048238;28;20057;-11
2022/09/28 07:55:24;;;;;;;2.33;0.95;;;21.20;46.10;;;;;;5032946;28;20056;-12
2022/09/28 07:58:09;;;;;;;1.45;1.15;;;21.10;46.30;;;;;;5050797;28;20516;-12
2022/09/28 08:00:53;;;;;;;2.60;1.17;;;21.20;46.30;;;;;;5046708;28;20048;-11
2022/09/28 08:03:23;;;;;;;1.63;1.20;;;21.20;46.30;;;;;;5048301;28;20049;-12
2022/09/28 08:05:49;;;;;;;1.65;1.10;;;21.20;46.20;;;;;;5048589;28;20052;-11
2022/09/28 08:08:15;;;;;;;1.88;1.20;;;21.20;46.20;;;;;;5050021;28;20061;-12
2022/09/28 08:10:42;;;;;;;2.10;1.15;;;21.20;46.10;;;;;;5032333;28;20053;-12
2022/09/28 08:13:19;;;;;;;1.48;1.30;;;21.20;46.10;;;;;;5049407;28;20193;-11
2022/09/28 08:16:00;;;;;;;1.95;1.58;;;21.20;46.00;;;;;;5050293;28;20505;-12
2022/09/28 08:18:34;;;;;;;2.80;1.30;;;21.20;46.00;;;;;;5030396;28;20049;-12
2022/09/28 08:23:51;;;;;;;1.65;1.05;;;21.20;46.10;;;;;;5049381;28;20073;-12
2022/09/28 08:26:18;;;;;;;2.35;1.60;;;21.20;46.00;;;;;;5032015;28;20084;-12
2022/09/28 08:28:46;;;;;;;2.05;1.33;;;21.20;46.00;;;;;;5032245;28;20125;-12
2022/09/28 08:31:41;;;;;;;3.10;1.63;;;21.20;46.00;;;;;;5036181;28;20452;-11
2022/09/28 08:34:38;;;;;;;3.08;1.90;;;21.20;46.00;;;;;;5049422;28;20059;-11
2022/09/28 08:37:13;;;;;;;1.92;1.60;;;21.30;46.00;;;;;;5050096;28;20137;-12
2022/09/28 08:40:02;;;;;;;5.35;2.30;;;21.30;46.00;;;;;;5091013;28;20421;-11
2022/09/28 08:42:44;;;;;;;5.45;2.13;;;21.30;46.00;;;;;;5049649;28;20406;-11
2022/09/28 08:45:34;;;;;;;4.45;2.55;;;21.20;45.90;;;;;;5012060;28;20052;-11
2022/09/28 08:48:43;;;;;;;7.28;2.50;;;21.20;45.90;;;;;;5038610;28;20069;-12
2022/09/28 08:51:58;;;;;;;4.75;2.88;;;21.30;46.00;;;;;;4978608;28;20128;-12
2022/09/28 08:54:47;;;;;;;3.95;2.85;;;21.20;45.90;;;;;;5034112;28;20072;-12
2022/09/28 08:57:30;;;;;;;3.13;2.47;;;21.30;45.90;;;;;;5031797;28;20049;-11
2022/09/28 08:59:58;;;;;;;6.38;2.90;;;21.30;45.90;;;;;;5048441;28;20060;-12
2022/09/28 09:02:35;;;;;;;4.05;2.92;;;21.30;46.40;;;;;;5049489;28;20132;-12
2022/09/28 09:05:19;;;;;;;7.40;2.95;;;21.30;45.80;;;;;;5048024;28;20053;-11
2022/09/28 09:08:46;;;;;;;7.53;3.38;;;21.30;45.80;;;;;;5050086;28;20187;-11
2022/09/28 09:11:59;;;;;;;4.00;2.90;;;21.30;45.80;;;;;;5029490;28;20132;-12
2022/09/28 09:14:37;;;;;;;5.97;2.90;;;21.30;45.70;;;;;;5033128;28;20112;-12
2022/09/28 09:17:27;;;;;;;4.95;2.88;;;21.30;45.70;;;;;;5031689;28;20517;-11
2022/09/28 09:20:14;;;;;;;5.13;2.95;;;21.30;45.70;;;;;;5030848;28;20053;-12
2022/09/28 09:23:04;;;;;;;7.05;3.17;;;21.30;45.70;;;;;;5031911;28;20049;-12
2022/09/28 09:25:44;;;;;;;3.70;2.23;;;21.40;45.70;;;;;;5031711;28;20048;-12
2022/09/28 09:28:45;;;;;;;4.90;3.00;;;21.40;45.60;;;;;;5047745;28;20049;-12
2022/09/28 09:31:58;;;;;;;6.80;2.70;;;21.40;45.60;;;;;;5031267;28;20053;-11
2022/09/28 09:34:40;;;;;;;4.13;2.90;;;21.40;45.70;;;;;;5046229;28;20800;-12
2022/09/28 09:37:59;;;;;;;6.70;3.60;;;21.40;45.70;;;;;;5049108;28;20049;-12
2022/09/28 09:40:43;;;;;;;7.13;3.33;;;21.40;45.60;;;;;;5049381;28;20057;-12
2022/09/28 09:43:41;;;;;;;5.07;3.30;;;21.40;45.70;;;;;;5049463;28;20053;-12
2022/09/28 09:46:37;;;;;;;4.38;3.10;;;21.40;45.70;;;;;;5031221;28;20061;-12
2022/09/28 09:49:44;;;;;;;4.35;3.20;;;21.40;45.60;;;;;;5034655;28;20132;-12
2022/09/28 09:52:29;;;;;;;7.45;3.80;;;21.40;45.60;;;;;;5049762;28;20474;-12
2022/09/28 09:55:13;;;;;;;5.75;3.78;;;21.40;45.60;;;;;;5031200;28;20542;-12
2022/09/28 09:57:52;;;;;;;6.00;3.50;;;21.40;45.60;;;;;;5031042;28;20057;-12
2022/09/28 10:00:30;;;;;;;7.72;4.00;;;21.40;45.60;;;;;;5047674;28;20053;-12
2022/09/28 10:03:32;;;;;;;5.50;3.22;;;21.40;45.60;;;;;;5031425;28;20056;-11
2022/09/28 10:06:44;;;;;;;6.47;3.55;;;21.40;45.70;;;;;;5032232;28;20045;-12
2022/09/28 10:09:22;;;;;;;5.28;3.45;;;21.40;45.60;;;;;;5034556;28;20066;-12
2022/09/28 10:11:50;;;;;;;5.90;4.18;;;21.40;45.60;;;;;;5031258;28;20057;-12
2022/09/28 10:14:27;;;;;;;4.60;3.15;;;21.40;45.60;;;;;;5030971;28;20056;-11
2022/09/28 10:17:09;;;;;;;5.85;3.53;;;21.40;45.60;;;;;;5050928;28;20049;-12
2022/09/28 10:19:55;;;;;;;7.15;3.70;;;21.40;45.60;;;;;;5051636;28;20077;-12
2022/09/28 10:22:55;;;;;;;7.43;3.50;;;21.40;45.60;;;;;;5055880;28;20056;-12
2022/09/28 10:25:20;;;;;;;5.88;3.75;;;21.40;45.60;;;;;;5033844;28;20049;-11
2022/09/28 10:27:51;;;;;;;7.38;3.50;;;21.40;45.60;;;;;;5051648;28;20433;-12
2022/09/28 10:30:22;;;;;;;5.90;3.92;;;21.40;45.60;;;;;;5033752;28;20087;-12
2022/09/28 10:32:52;;;;;;;5.05;3.13;;;21.40;45.60;;;;;;5033520;28;20055;-12
2022/09/28 10:35:18;;;;;;;4.97;3.17;;;21.40;45.60;;;;;;5033940;28;20055;-12
2022/09/28 10:38:03;;;;;;;4.35;3.33;;;21.30;45.80;;;;;;5050105;28;20045;-12
2022/09/28 10:40:57;;;;;;;5.68;3.70;;;21.30;45.70;;;;;;5051193;28;20060;-12
2022/09/28 10:43:46;;;;;;;6.93;4.32;;;21.30;45.70;;;;;;5033242;28;20057;-12
2022/09/28 10:46:19;;;;;;;5.95;3.80;;;21.30;45.70;;;;;;5102112;28;20072;-12
2022/09/28 10:48:59;;;;;;;7.90;4.43;;;21.40;45.70;;;;;;5033435;28;20509;-11
2022/09/28 10:51:50;;;;;;;9.50;4.38;;;21.40;45.70;;;;;;5032473;28;20416;-11
2022/09/28 10:54:28;;;;;;;8.25;3.95;;;21.30;45.70;;;;;;5050053;28;20482;-12
2022/09/28 10:56:56;;;;;;;5.78;4.00;;;21.30;45.80;;;;;;5033429;28;20056;-12
2022/09/28 10:59:43;;;;;;;7.05;4.28;;;21.40;45.80;;;;;;5033972;28;20047;-12
2022/09/28 11:02:33;;;;;;;5.07;3.60;;;21.40;45.70;;;;;;5033707;28;20060;-12
2022/09/28 11:05:05;;;;;;;8.80;4.05;;;21.40;45.70;;;;;;5049056;28;20056;-12
2022/09/28 11:07:45;;;;;;;6.00;3.92;;;21.40;45.70;;;;;;5033229;28;20056;-12
2022/09/28 11:10:20;;;;;;;6.50;4.03;;;21.40;45.60;;;;;;5033117;28;20511;-11
2022/09/28 11:12:48;;;;;;;6.45;4.38;;;21.40;45.60;;;;;;5032438;28;20064;-12
2022/09/28 11:15:25;;;;;;;6.00;4.47;;;21.40;45.60;;;;;;5031864;28;20073;-11
2022/09/28 11:17:52;;;;;;;6.82;4.28;;;21.40;45.60;;;;;;5049754;28;20057;-11
2022/09/28 11:20:25;;;;;;;6.72;4.38;;;21.40;45.50;;;;;;5031640;28;20119;-11
2022/09/28 11:22:57;;;;;;;8.60;4.50;;;21.40;45.50;;;;;;5050098;28;20052;-11
2022/09/28 11:25:28;;;;;;;4.82;3.83;;;21.40;45.60;;;;;;5033044;28;20056;-11
2022/09/28 11:27:55;;;;;;;6.38;4.13;;;21.40;45.70;;;;;;5032684;28;20049;-11
2022/09/28 11:30:29;;;;;;;5.40;4.30;;;21.40;45.70;;;;;;5050747;28;20086;-11
2022/09/28 11:33:34;;;;;;;6.65;4.28;;;21.40;45.70;;;;;;5038381;28;20102;-11
2022/09/28 11:36:38;;;;;;;;;;;21.50;45.70;;;;;;5047162;28;20071;-11
2022/09/28 11:39:25;;;;;;;6.18;4.47;;;21.50;45.70;;;;;;5049783;28;19969;-10
2022/09/28 11:41:56;;;;;;;6.90;4.40;;;21.50;45.70;;;;;;5033364;28;20414;-9
2022/09/28 11:44:57;;;;;;;8.45;4.82;;;21.50;45.70;;;;;;5032765;28;20371;-9
2022/09/28 11:47:38;;;;;;;8.02;4.65;;;21.40;45.70;;;;;;5036542;28;20431;-12
2022/09/28 11:50:21;;;;;;;8.60;4.10;;;21.50;45.90;;;;;;5032654;28;20045;-12
2022/09/28 11:53:01;;;;;;;6.00;4.65;;;21.50;45.90;;;;;;5032969;28;20065;-11
2022/09/28 11:55:35;;;;;;;8.88;4.95;;;21.50;45.90;;;;;;5032489;28;20443;-11
2022/09/28 11:58:12;;;;;;;7.18;4.93;;;21.60;45.90;;;;;;5030755;28;20049;-12
2022/09/28 12:00:46;;;;;;;7.53;5.18;;;21.60;45.90;;;;;;5032979;28;20045;-12
2022/09/28 12:03:28;;;;;;;8.40;5.00;;;21.60;45.90;;;;;;5032913;28;20101;-12
2022/09/28 12:06:13;;;;;;;7.85;4.95;;;21.60;45.80;;;;;;5030824;28;20107;-12
2022/09/28 12:08:45;;;;;;;9.75;4.95;;;21.70;45.80;;;;;;5050486;28;20145;-12
2022/09/28 12:11:37;;;;;;;8.05;5.13;;;21.70;45.90;;;;;;5049413;28;20114;-13
2022/09/28 12:14:33;;;;;;;8.40;4.87;;;21.70;45.70;;;;;;5049006;28;20052;-10
2022/09/28 12:17:14;;;;;;;9.57;5.35;;;21.70;45.90;;;;;;5050589;28;20379;-11
2022/09/28 12:19:59;;;;;;;19.60;5.95;;;21.70;45.90;;;;;;5049470;28;20490;-12
2022/09/28 12:22:34;;;;;;;10.35;5.82;;;21.70;45.90;;;;;;5048481;28;20045;-11
2022/09/28 12:25:02;;;;;;;11.57;5.82;;;21.80;45.90;;;;;;5050585;28;20121;-11
2022/09/28 12:27:42;;;;;;;11.27;5.65;;;21.70;45.90;;;;;;5050202;28;20048;-11
2022/09/28 12:30:18;;;;;;;18.15;5.85;;;21.80;46.00;;;;;;5049714;28;20413;-9
2022/09/28 12:33:10;;;;;;;11.50;5.22;;;21.80;45.90;;;;;;5050151;28;20117;-9
2022/09/28 12:35:55;;;;;;;10.93;5.50;;;21.80;45.90;;;;;;5050044;28;20041;-9
2022/09/28 12:38:34;;;;;;;10.70;5.50;;;21.80;45.80;;;;;;5049404;28;20045;-9
2022/09/28 12:41:18;;;;;;;9.75;5.97;;;21.80;45.80;;;;;;5050261;28;20138;-9
2022/09/28 12:44:04;;;;;;;10.23;5.22;;;21.70;45.60;;;;;;5049912;28;20127;-10
2022/09/28 12:47:08;;;;;;;9.32;5.20;;;21.70;45.70;;;;;;5050325;28;20132;-9
2022/09/28 12:49:43;;;;;;;11.20;5.80;;;21.70;45.70;;;;;;5049658;28;20506;-10
2022/09/28 12:52:33;;;;;;;10.63;5.57;;;21.60;45.80;;;;;;5049898;28;20387;-9
2022/09/28 12:55:12;;;;;;;8.48;5.28;;;21.70;45.70;;;;;;5049789;28;20041;-9
2022/09/28 12:57:53;;;;;;;8.13;5.43;;;21.70;45.70;;;;;;5049641;28;20401;-10
2022/09/28 13:00:24;;;;;;;8.70;4.95;;;21.70;45.60;;;;;;5050102;28;20055;-9
2022/09/28 13:03:29;;;;;;;9.48;5.18;;;21.70;45.70;;;;;;5049871;28;20935;-10
2022/09/28 13:06:22;;;;;;;6.30;4.80;;;21.70;45.70;;;;;;5049867;28;20045;-10
2022/09/28 13:09:00;;;;;;;8.38;5.15;;;21.60;45.70;;;;;;5049934;28;20490;-10
2022/09/28 13:11:40;;;;;;;7.95;4.80;;;21.60;45.70;;;;;;5049851;28;20049;-10
2022/09/28 13:14:41;;;;;;;10.27;5.50;;;21.60;45.60;;;;;;5049858;28;20079;-10
2022/09/28 13:17:26;;;;;;;9.95;4.90;;;21.60;45.60;;;;;;5048053;28;20489;-10
2022/09/28 13:20:24;;;;;;;7.07;4.88;;;21.60;45.70;;;;;;5049458;28;20128;-10
2022/09/28 13:23:10;;;;;;;7.40;4.88;;;21.60;45.70;;;;;;5049549;28;20049;-10
2022/09/28 13:25:40;;;;;;;7.75;4.78;;;21.60;45.70;;;;;;5049536;28;20045;-10
2022/09/28 13:28:06;;;;;;;8.63;5.00;;;21.60;45.70;;;;;;5049530;28;20053;-10
2022/09/28 13:30:38;;;;;;;9.20;5.45;;;21.60;45.70;;;;;;5049408;28;20057;-10
2022/09/28 13:33:07;;;;;;;11.23;4.80;;;21.60;45.70;;;;;;5049863;28;20148;-10
2022/09/28 13:35:33;;;;;;;6.78;5.00;;;21.60;45.70;;;;;;5049349;28;20041;-10
2022/09/28 13:38:17;;;;;;;6.30;4.45;;;21.60;45.70;;;;;;5049263;28;20490;-10
2022/09/28 13:41:04;;;;;;;6.72;4.82;;;21.50;45.80;;;;;;5049749;28;20512;-10